Time;durP1;ratioP1;P1;durP2;ratioP2;P2;SDS_P1;SDS_P2;PMS_P1;PMS_P2;Temp;Humidity;BMP_temperature;BMP_pressure;BME280_temperature;BME280_humidity;BME280_pressure;Samples;Min_cycle;Max_cycle;Signal;HPM_P1;HPM_P2
2021/06/20 00:00:02;;;;;;;3.80;1.70;;;;;;;;;;5138903;27;20214;-73
2021/06/20 00:02:29;;;;;;;3.23;1.30;;;;;;;;;;5138572;27;20279;-72
2021/06/20 00:04:57;;;;;;;2.63;1.63;;;;;;;;;;5138591;27;20212;-72
2021/06/20 00:07:25;;;;;;;3.47;1.53;;;;;;;;;;5138937;27;20726;-72
2021/06/20 00:09:53;;;;;;;2.10;1.30;;;;;;;;;;5138866;27;20251;-72
2021/06/20 00:12:20;;;;;;;2.43;1.50;;;;;;;;;;5131294;28;20278;-72
2021/06/20 00:14:48;;;;;;;1.83;1.40;;;;;;;;;;5137041;28;20211;-72
2021/06/20 00:17:17;;;;;;;4.97;1.70;;;;;;;;;;5138555;28;20208;-72
2021/06/20 00:19:45;;;;;;;3.10;1.73;;;;;;;;;;5138937;28;20202;-72
2021/06/20 00:22:12;;;;;;;4.43;1.60;;;;;;;;;;5138563;28;20271;-72
2021/06/20 00:24:40;;;;;;;4.30;1.50;;;;;;;;;;5138278;28;20206;-72
2021/06/20 00:27:08;;;;;;;3.47;1.70;;;;;;;;;;5137667;28;20206;-72
2021/06/20 00:29:36;;;;;;;5.87;2.00;;;;;;;;;;5137343;28;20225;-72
2021/06/20 00:32:04;;;;;;;1.47;1.37;;;;;;;;;;5136537;28;20301;-72
2021/06/20 00:34:33;;;;;;;5.10;1.80;;;;;;;;;;5136256;28;20286;-72
2021/06/20 00:37:01;;;;;;;6.40;1.77;;;;;;;;;;5136599;28;20205;-72
2021/06/20 00:39:28;;;;;;;3.60;2.57;;;;;;;;;;5136591;28;20205;-72
2021/06/20 00:41:56;;;;;;;9.53;2.13;;;;;;;;;;5136866;28;20277;-72
2021/06/20 00:44:24;;;;;;;6.93;1.93;;;;;;;;;;5137945;28;20716;-73
2021/06/20 00:46:52;;;;;;;3.53;1.80;;;;;;;;;;5138867;28;20535;-72
2021/06/20 00:49:19;;;;;;;5.63;1.93;;;;;;;;;;5138764;28;20245;-72
2021/06/20 00:51:49;;;;;;;6.17;2.00;;;;;;;;;;5138521;28;20640;-72
2021/06/20 00:54:17;;;;;;;2.30;2.10;;;;;;;;;;5138626;28;20230;-72
2021/06/20 00:56:44;;;;;;;5.63;2.37;;;;;;;;;;5138426;28;20625;-72
2021/06/20 00:59:12;;;;;;;3.63;1.83;;;;;;;;;;5138608;28;20647;-73
2021/06/20 01:01:40;;;;;;;4.47;2.83;;;;;;;;;;5138195;28;20224;-72
2021/06/20 01:04:08;;;;;;;9.47;3.33;;;;;;;;;;5138327;28;20252;-72
2021/06/20 01:06:37;;;;;;;8.43;4.07;;;;;;;;;;5138521;28;20681;-72
2021/06/20 01:09:07;;;;;;;6.77;3.40;;;;;;;;;;5138316;28;20254;-72
2021/06/20 01:11:34;;;;;;;9.37;4.03;;;;;;;;;;5137096;28;20255;-73
2021/06/20 01:14:03;;;;;;;9.87;2.93;;;;;;;;;;5130337;28;20201;-72
2021/06/20 01:16:31;;;;;;;6.97;2.90;;;;;;;;;;5137950;28;20203;-73
2021/06/20 01:18:59;;;;;;;9.53;3.67;;;;;;;;;;5140343;27;20253;-72
2021/06/20 01:21:27;;;;;;;13.23;3.87;;;;;;;;;;5141193;27;20553;-72
2021/06/20 01:23:56;;;;;;;16.63;4.30;;;;;;;;;;5140844;27;20278;-72
2021/06/20 01:26:23;;;;;;;22.77;4.40;;;;;;;;;;5141148;27;20218;-72
2021/06/20 01:28:52;;;;;;;11.50;3.20;;;;;;;;;;5142080;27;20760;-72
2021/06/20 01:31:20;;;;;;;16.17;3.73;;;;;;;;;;5141521;27;20225;-72
2021/06/20 01:33:48;;;;;;;4.27;2.23;;;;;;;;;;5140521;27;20766;-72
2021/06/20 01:36:15;;;;;;;10.60;2.50;;;;;;;;;;5141156;27;20695;-72
2021/06/20 01:38:43;;;;;;;6.03;2.43;;;;;;;;;;5141040;27;20213;-72
2021/06/20 01:41:12;;;;;;;4.90;2.23;;;;;;;;;;5140936;27;20199;-73
2021/06/20 01:43:40;;;;;;;6.77;2.70;;;;;;;;;;5140837;27;20216;-73
2021/06/20 01:46:07;;;;;;;6.67;2.40;;;;;;;;;;5141349;27;20547;-72
2021/06/20 01:48:36;;;;;;;11.93;3.63;;;;;;;;;;5140722;27;20218;-72
2021/06/20 01:51:05;;;;;;;9.17;3.23;;;;;;;;;;5141103;27;20279;-73
2021/06/20 01:53:33;;;;;;;11.77;3.63;;;;;;;;;;5140885;27;20282;-73
2021/06/20 01:56:00;;;;;;;13.17;4.43;;;;;;;;;;5141203;27;20225;-72
2021/06/20 01:58:29;;;;;;;14.73;4.43;;;;;;;;;;5141038;27;20232;-72
2021/06/20 02:00:57;;;;;;;11.63;3.80;;;;;;;;;;5141053;27;20204;-72
2021/06/20 02:03:27;;;;;;;8.40;3.53;;;;;;;;;;5140606;27;20208;-72
2021/06/20 02:05:57;;;;;;;13.47;3.93;;;;;;;;;;5141195;27;20254;-73
2021/06/20 02:08:25;;;;;;;9.40;3.03;;;;;;;;;;5141189;27;20262;-72
2021/06/20 02:10:54;;;;;;;10.23;3.10;;;;;;;;;;5140823;27;20223;-73
2021/06/20 02:13:24;;;;;;;15.33;4.50;;;;;;;;;;5132007;27;20226;-72
2021/06/20 02:15:53;;;;;;;14.57;4.00;;;;;;;;;;5140508;27;20203;-72
2021/06/20 02:18:21;;;;;;;15.00;3.77;;;;;;;;;;5140415;27;20204;-73
2021/06/20 02:20:49;;;;;;;19.27;4.70;;;;;;;;;;5140345;27;20657;-72
2021/06/20 02:23:17;;;;;;;13.63;3.80;;;;;;;;;;5140083;27;20223;-73
2021/06/20 02:25:45;;;;;;;12.10;4.03;;;;;;;;;;5139906;27;20229;-72
2021/06/20 02:28:12;;;;;;;19.43;4.70;;;;;;;;;;5140120;27;20255;-72
2021/06/20 02:30:40;;;;;;;18.43;4.40;;;;;;;;;;5138715;27;20651;-72
2021/06/20 02:33:09;;;;;;;18.77;4.77;;;;;;;;;;5139570;27;20222;-72
2021/06/20 02:35:37;;;;;;;17.80;4.90;;;;;;;;;;5139398;27;20289;-72
2021/06/20 02:38:04;;;;;;;15.07;4.73;;;;;;;;;;5139718;27;20205;-72
2021/06/20 02:40:32;;;;;;;14.70;4.20;;;;;;;;;;5139441;27;20206;-72
2021/06/20 02:43:00;;;;;;;21.40;5.13;;;;;;;;;;5139394;27;20233;-72
2021/06/20 02:45:28;;;;;;;15.83;4.37;;;;;;;;;;5139593;27;20258;-72
2021/06/20 02:47:55;;;;;;;22.43;5.07;;;;;;;;;;5140318;27;20660;-72
2021/06/20 02:50:25;;;;;;;16.10;4.30;;;;;;;;;;5140123;27;20252;-73
2021/06/20 02:52:52;;;;;;;14.23;5.23;;;;;;;;;;5139294;27;20224;-72
2021/06/20 02:55:20;;;;;;;15.57;4.50;;;;;;;;;;5136600;27;20267;-72
2021/06/20 02:57:49;;;;;;;15.00;4.53;;;;;;;;;;5139378;27;20203;-72
2021/06/20 03:00:17;;;;;;;18.27;4.37;;;;;;;;;;5139462;27;20532;-73
2021/06/20 03:02:47;;;;;;;20.43;5.20;;;;;;;;;;5139386;27;20223;-72
2021/06/20 03:05:15;;;;;;;16.77;3.90;;;;;;;;;;5139787;27;20634;-73
2021/06/20 03:07:45;;;;;;;17.30;5.07;;;;;;;;;;5139638;27;20253;-72
2021/06/20 03:10:12;;;;;;;13.10;5.23;;;;;;;;;;5139822;27;20254;-72
2021/06/20 03:12:40;;;;;;;14.80;4.27;;;;;;;;;;5130479;27;20231;-73
2021/06/20 03:15:08;;;;;;;19.20;4.67;;;;;;;;;;5139611;27;20195;-73
2021/06/20 03:17:36;;;;;;;19.40;5.03;;;;;;;;;;5139123;27;20202;-72
2021/06/20 03:20:05;;;;;;;15.50;4.87;;;;;;;;;;5139319;27;20205;-73
2021/06/20 03:22:32;;;;;;;17.87;5.47;;;;;;;;;;5139235;27;20222;-73
2021/06/20 03:25:01;;;;;;;17.83;4.90;;;;;;;;;;5139964;27;20664;-72
2021/06/20 03:27:29;;;;;;;17.90;5.00;;;;;;;;;;5140142;27;20652;-73
2021/06/20 03:29:57;;;;;;;14.07;4.87;;;;;;;;;;5140202;27;20216;-72
2021/06/20 03:32:25;;;;;;;15.33;4.60;;;;;;;;;;5139221;27;20229;-72
2021/06/20 03:34:52;;;;;;;17.47;5.00;;;;;;;;;;5139307;27;20229;-73
2021/06/20 03:37:20;;;;;;;13.10;4.77;;;;;;;;;;5139282;27;20540;-73
2021/06/20 03:39:48;;;;;;;24.83;5.43;;;;;;;;;;5139208;27;20291;-72
2021/06/20 03:42:17;;;;;;;16.43;5.43;;;;;;;;;;5138732;27;20224;-73
2021/06/20 03:44:44;;;;;;;22.93;4.80;;;;;;;;;;5139388;27;20212;-72
2021/06/20 03:47:12;;;;;;;16.47;5.23;;;;;;;;;;5138952;27;20555;-72
2021/06/20 03:49:44;;;;;;;18.57;4.53;;;;;;;;;;5139495;27;20208;-73
2021/06/20 03:52:11;;;;;;;23.37;5.43;;;;;;;;;;5138525;27;20228;-73
2021/06/20 03:54:39;;;;;;;13.73;4.87;;;;;;;;;;5139043;27;20208;-72
2021/06/20 03:57:07;;;;;;;12.83;4.23;;;;;;;;;;5138587;27;20257;-72
2021/06/20 03:59:36;;;;;;;15.10;4.70;;;;;;;;;;5139079;27;20204;-72
2021/06/20 04:02:04;;;;;;;18.33;4.60;;;;;;;;;;5125367;27;20224;-72
2021/06/20 04:04:32;;;;;;;17.07;4.27;;;;;;;;;;5139026;27;20787;-72
2021/06/20 04:07:00;;;;;;;18.03;4.93;;;;;;;;;;5139259;27;20258;-73
2021/06/20 04:09:27;;;;;;;14.03;4.10;;;;;;;;;;5138749;27;20204;-73
2021/06/20 04:11:55;;;;;;;14.07;5.50;;;;;;;;;;5138284;27;20473;-73
2021/06/20 04:14:23;;;;;;;19.13;4.63;;;;;;;;;;5138946;27;20648;-72
2021/06/20 04:16:52;;;;;;;13.60;4.90;;;;;;;;;;5138719;27;20208;-73
2021/06/20 04:19:20;;;;;;;16.27;5.83;;;;;;;;;;5138898;27;20216;-72
2021/06/20 04:21:47;;;;;;;17.43;4.63;;;;;;;;;;5139010;28;20245;-72
2021/06/20 04:24:15;;;;;;;17.10;4.50;;;;;;;;;;5139229;28;20209;-73
2021/06/20 04:26:43;;;;;;;21.30;5.20;;;;;;;;;;5138976;28;20200;-72
2021/06/20 04:29:11;;;;;;;13.53;4.73;;;;;;;;;;5138469;28;20201;-72
2021/06/20 04:31:38;;;;;;;20.57;4.77;;;;;;;;;;5138093;28;20229;-72
2021/06/20 04:34:08;;;;;;;25.53;5.40;;;;;;;;;;5138210;28;20241;-72
2021/06/20 04:36:36;;;;;;;17.30;4.43;;;;;;;;;;5137791;28;20246;-72
2021/06/20 04:39:05;;;;;;;14.57;4.70;;;;;;;;;;5137767;28;20199;-72
2021/06/20 04:41:33;;;;;;;21.77;4.73;;;;;;;;;;5137435;28;20245;-72
2021/06/20 04:44:02;;;;;;;12.53;4.70;;;;;;;;;;5137695;28;20202;-73
2021/06/20 04:46:31;;;;;;;17.27;5.10;;;;;;;;;;5137457;28;20261;-72
2021/06/20 04:49:00;;;;;;;17.30;5.13;;;;;;;;;;5137527;28;20214;-72
2021/06/20 04:51:31;;;;;;;18.50;5.37;;;;;;;;;;5137434;28;20226;-72
2021/06/20 04:53:59;;;;;;;15.50;5.20;;;;;;;;;;5140931;27;20233;-72
2021/06/20 04:56:26;;;;;;;23.30;5.47;;;;;;;;;;5141681;27;20204;-72
2021/06/20 04:58:54;;;;;;;24.03;6.10;;;;;;;;;;5142291;27;20206;-72
2021/06/20 05:01:22;;;;;;;15.10;5.17;;;;;;;;;;5142141;27;20216;-72
2021/06/20 05:03:50;;;;;;;10.93;4.37;;;;;;;;;;5141902;27;20206;-72
2021/06/20 05:06:17;;;;;;;19.67;4.97;;;;;;;;;;5142497;27;20205;-72
2021/06/20 05:08:47;;;;;;;15.17;5.27;;;;;;;;;;5142525;27;20367;-72
2021/06/20 05:11:14;;;;;;;25.63;6.07;;;;;;;;;;5142177;27;20237;-72
2021/06/20 05:13:42;;;;;;;17.30;5.27;;;;;;;;;;5132802;27;20200;-72
2021/06/20 05:16:11;;;;;;;17.90;4.50;;;;;;;;;;5142260;27;20905;-72
2021/06/20 05:18:39;;;;;;;17.20;4.97;;;;;;;;;;5141945;27;20293;-72
2021/06/20 05:21:06;;;;;;;18.57;5.53;;;;;;;;;;5141863;27;20248;-72
2021/06/20 05:23:35;;;;;;;17.10;5.30;;;;;;;;;;5142747;27;20209;-72
2021/06/20 05:26:04;;;;;;;18.37;5.10;;;;;;;;;;5141810;27;20272;-72
2021/06/20 05:28:32;;;;;;;16.20;4.93;;;;;;;;;;5141999;27;20203;-73
2021/06/20 05:30:59;;;;;;;18.20;5.47;;;;;;;;;;5141880;27;20253;-72
2021/06/20 05:33:27;;;;;;;14.00;5.10;;;;;;;;;;5141345;27;20230;-72
2021/06/20 05:35:55;;;;;;;12.07;4.97;;;;;;;;;;5141939;27;20234;-72
2021/06/20 05:38:23;;;;;;;17.17;6.53;;;;;;;;;;5141633;27;20260;-72
2021/06/20 05:40:50;;;;;;;14.40;4.93;;;;;;;;;;5141546;27;20245;-72
2021/06/20 05:43:19;;;;;;;14.70;4.73;;;;;;;;;;5141661;27;20223;-72
2021/06/20 05:45:47;;;;;;;11.97;4.77;;;;;;;;;;5141467;27;20257;-73
2021/06/20 05:48:15;;;;;;;13.70;4.47;;;;;;;;;;5141284;27;20290;-72
2021/06/20 05:50:43;;;;;;;19.00;5.93;;;;;;;;;;5141299;27;20253;-72
2021/06/20 05:53:10;;;;;;;18.33;6.53;;;;;;;;;;5141220;27;20698;-72
2021/06/20 05:55:38;;;;;;;17.00;5.97;;;;;;;;;;5141286;27;20213;-72
2021/06/20 05:58:06;;;;;;;16.10;5.67;;;;;;;;;;5140863;27;20202;-72
2021/06/20 06:00:35;;;;;;;22.00;5.93;;;;;;;;;;5141087;27;20208;-72
2021/06/20 06:03:03;;;;;;;17.53;4.80;;;;;;;;;;5140663;27;20236;-72
2021/06/20 06:05:30;;;;;;;15.10;4.63;;;;;;;;;;5140765;27;20233;-72
2021/06/20 06:07:58;;;;;;;18.57;5.70;;;;;;;;;;5140986;27;20210;-72
2021/06/20 06:10:26;;;;;;;17.07;5.00;;;;;;;;;;5140744;27;20210;-72
2021/06/20 06:12:54;;;;;;;15.57;5.00;;;;;;;;;;5131395;27;20300;-72
2021/06/20 06:15:22;;;;;;;16.63;6.03;;;;;;;;;;5140444;27;20293;-72
2021/06/20 06:17:51;;;;;;;14.90;4.67;;;;;;;;;;5140524;27;20212;-72
2021/06/20 06:20:19;;;;;;;18.30;4.90;;;;;;;;;;5140559;27;20724;-72
2021/06/20 06:22:47;;;;;;;20.03;5.30;;;;;;;;;;5139978;27;20220;-72
2021/06/20 06:25:15;;;;;;;18.83;5.60;;;;;;;;;;5140485;27;20230;-72
2021/06/20 06:27:44;;;;;;;19.53;5.20;;;;;;;;;;5140133;27;20204;-72
2021/06/20 06:30:13;;;;;;;13.77;5.40;;;;;;;;;;5139930;27;20258;-72
2021/06/20 06:32:42;;;;;;;16.10;5.10;;;;;;;;;;5139175;27;20305;-72
2021/06/20 06:35:12;;;;;;;18.53;5.30;;;;;;;;;;5139642;27;20257;-72
2021/06/20 06:37:40;;;;;;;15.00;5.17;;;;;;;;;;5139854;27;20204;-73
2021/06/20 06:40:08;;;;;;;19.90;6.00;;;;;;;;;;5140747;27;20256;-72
2021/06/20 06:42:36;;;;;;;14.40;5.53;;;;;;;;;;5140101;27;20246;-72
2021/06/20 06:45:04;;;;;;;19.87;5.53;;;;;;;;;;5139950;27;20712;-72
2021/06/20 06:47:34;;;;;;;22.90;5.63;;;;;;;;;;5139161;27;20227;-72
2021/06/20 06:50:02;;;;;;;20.23;5.00;;;;;;;;;;5139970;27;20205;-72
2021/06/20 06:52:31;;;;;;;16.40;5.63;;;;;;;;;;5139947;27;20237;-72
2021/06/20 06:54:58;;;;;;;18.77;4.93;;;;;;;;;;5140083;27;20204;-72
2021/06/20 06:57:27;;;;;;;22.77;5.73;;;;;;;;;;5139901;27;20199;-72
2021/06/20 06:59:55;;;;;;;18.47;5.00;;;;;;;;;;5140002;27;20204;-72
2021/06/20 07:02:23;;;;;;;18.83;5.30;;;;;;;;;;5139918;27;20220;-73
2021/06/20 07:04:51;;;;;;;21.37;5.13;;;;;;;;;;5140135;27;20213;-72
2021/06/20 07:07:25;;;;;;;20.30;5.33;;;;;;;;;;5139367;27;20215;-72
2021/06/20 07:09:58;;;;;;;18.70;4.53;;;;;;;;;;5139401;27;20256;-73
2021/06/20 07:12:26;;;;;;;22.63;5.37;;;;;;;;;;5130464;27;20224;-72
2021/06/20 07:14:54;;;;;;;25.13;6.27;;;;;;;;;;5137174;27;20645;-73
2021/06/20 07:17:23;;;;;;;18.03;5.43;;;;;;;;;;5138421;27;20207;-73
2021/06/20 07:19:51;;;;;;;25.07;5.07;;;;;;;;;;5138929;27;20653;-72
2021/06/20 07:22:19;;;;;;;19.20;5.07;;;;;;;;;;5138852;27;20231;-72
2021/06/20 07:24:46;;;;;;;22.00;5.13;;;;;;;;;;5138754;27;20646;-73
2021/06/20 07:27:16;;;;;;;23.63;5.20;;;;;;;;;;5138762;27;20217;-72
2021/06/20 07:29:45;;;;;;;16.03;4.70;;;;;;;;;;5138660;27;20205;-72
2021/06/20 07:32:13;;;;;;;19.23;5.00;;;;;;;;;;5138409;27;20224;-73
2021/06/20 07:34:41;;;;;;;22.43;6.63;;;;;;;;;;5138457;27;20234;-72
2021/06/20 07:37:09;;;;;;;16.73;5.27;;;;;;;;;;5138782;27;20565;-73
2021/06/20 07:39:36;;;;;;;16.77;5.33;;;;;;;;;;5138772;27;20213;-73
2021/06/20 07:42:04;;;;;;;21.50;5.07;;;;;;;;;;5138974;27;20697;-72
2021/06/20 07:44:33;;;;;;;17.63;5.03;;;;;;;;;;5139095;27;20201;-72
2021/06/20 07:47:01;;;;;;;22.47;5.27;;;;;;;;;;5139009;27;20210;-73
2021/06/20 07:49:29;;;;;;;27.53;5.57;;;;;;;;;;5139116;27;20236;-72
2021/06/20 07:51:56;;;;;;;24.77;5.40;;;;;;;;;;5138814;27;20227;-72
2021/06/20 07:54:24;;;;;;;20.27;5.87;;;;;;;;;;5138524;27;20224;-73
2021/06/20 07:56:52;;;;;;;20.83;5.10;;;;;;;;;;5138622;27;20204;-72
2021/06/20 07:59:19;;;;;;;15.73;5.67;;;;;;;;;;5138485;27;20231;-73
2021/06/20 08:01:48;;;;;;;18.80;5.77;;;;;;;;;;5137600;27;20631;-73
2021/06/20 08:04:16;;;;;;;14.70;4.90;;;;;;;;;;5137683;27;20217;-73
2021/06/20 08:06:44;;;;;;;29.97;5.33;;;;;;;;;;5138001;27;20201;-73
2021/06/20 08:09:12;;;;;;;22.43;6.53;;;;;;;;;;5137805;27;20212;-73
2021/06/20 08:11:39;;;;;;;15.63;5.03;;;;;;;;;;5136423;27;20605;-72
2021/06/20 08:14:07;;;;;;;17.67;4.57;;;;;;;;;;5131490;27;20231;-71
2021/06/20 08:16:35;;;;;;;21.93;5.93;;;;;;;;;;5138363;27;20209;-72
2021/06/20 08:19:04;;;;;;;22.37;5.13;;;;;;;;;;5138491;27;20650;-71
2021/06/20 08:21:32;;;;;;;23.50;5.30;;;;;;;;;;5138361;28;20282;-71
2021/06/20 08:23:59;;;;;;;23.70;5.17;;;;;;;;;;5138168;28;20207;-72
2021/06/20 08:26:27;;;;;;;18.07;5.30;;;;;;;;;;5138278;27;20579;-71
2021/06/20 08:28:55;;;;;;;19.70;4.90;;;;;;;;;;5141499;27;20253;-72
2021/06/20 08:31:22;;;;;;;22.90;6.70;;;;;;;;;;5142424;27;20230;-72
2021/06/20 08:33:50;;;;;;;22.87;5.23;;;;;;;;;;5142311;27;20312;-71
2021/06/20 08:36:19;;;;;;;23.60;5.50;;;;;;;;;;5142728;27;20222;-71
2021/06/20 08:38:47;;;;;;;26.15;5.68;;;;;;;;;;5142382;27;20206;-72
2021/06/20 08:41:16;;;;;;;19.77;5.15;;;;;;;;;;5142733;27;20234;-71
2021/06/20 08:43:44;;;;;;;22.08;5.00;;;;;;;;;;5142970;27;20203;-72
2021/06/20 08:46:13;;;;;;;22.92;4.97;;;;;;;;;;5142960;27;20684;-71
2021/06/20 08:48:40;;;;;;;19.80;5.22;;;;;;;;;;5142448;27;20210;-74
2021/06/20 08:51:08;;;;;;;27.38;5.43;;;;;;;;;;5142525;27;20260;-72
2021/06/20 08:53:37;;;;;;;19.58;4.80;;;;;;;;;;5142395;27;20259;-71
2021/06/20 08:56:05;;;;;;;24.33;5.00;;;;;;;;;;5141961;27;20215;-71
2021/06/20 08:58:35;;;;;;;26.63;5.13;;;;;;;;;;5141631;27;20207;-73
2021/06/20 09:01:05;;;;;;;24.25;5.20;;;;;;;;;;5141968;27;20208;-73
2021/06/20 09:03:39;;;;;;;27.77;5.03;;;;;;;;;;5141802;27;20221;-71
2021/06/20 09:06:13;;;;;;;25.13;6.60;;;;;;;;;;5142099;27;20252;-71
2021/06/20 09:08:45;;;;;;;28.52;5.90;;;;;;;;;;5142292;27;20207;-71
2021/06/20 09:11:22;;;;;;;29.48;4.32;;;;;;;;;;5142213;27;20691;-73
2021/06/20 09:13:50;;;;;;;17.95;4.32;;;;;;;;;;5141918;27;20226;-72
2021/06/20 09:16:19;;;;;;;15.13;5.55;;;;;;;;;;5142048;27;20629;-72
2021/06/20 09:18:51;;;;;;;16.77;5.20;;;;;;;;;;5142235;27;20215;-71
2021/06/20 09:21:23;;;;;;;15.77;3.58;;;;;;;;;;5142198;27;20223;-72
2021/06/20 09:23:52;;;;;;;17.00;4.40;;;;;;;;;;5142125;27;20225;-71
2021/06/20 09:26:31;;;;;;;20.58;4.90;;;;;;;;;;5128244;27;20211;-72
2021/06/20 09:28:59;;;;;;;23.08;4.85;;;;;;;;;;5141517;27;20717;-72
2021/06/20 09:31:27;;;;;;;25.08;4.95;;;;;;;;;;5141156;27;20279;-73
2021/06/20 09:33:59;;;;;;;20.38;4.07;;;;;;;;;;5141018;27;20733;-71
2021/06/20 09:36:29;;;;;;;23.27;4.63;;;;;;;;;;5141152;27;20206;-72
2021/06/20 09:38:59;;;;;;;22.73;5.25;;;;;;;;;;5138130;27;20289;-72
2021/06/20 09:41:26;;;;;;;23.58;5.35;;;;;;;;;;5141340;27;20267;-72
2021/06/20 09:43:55;;;;;;;24.40;4.88;;;;;;;;;;5141049;27;20245;-72
2021/06/20 09:46:23;;;;;;;23.75;5.40;;;;;;;;;;5141176;27;20217;-72
2021/06/20 09:48:51;;;;;;;21.73;5.03;;;;;;;;;;5141388;27;20583;-72
2021/06/20 09:51:20;;;;;;;24.38;4.25;;;;;;;;;;5141613;27;20262;-73
2021/06/20 09:53:48;;;;;;;21.05;3.95;;;;;;;;;;5141534;27;20705;-72
2021/06/20 09:56:19;;;;;;;26.52;4.35;;;;;;;;;;5141618;27;20211;-72
2021/06/20 09:58:48;;;;;;;21.45;4.45;;;;;;;;;;5128676;27;20204;-72
2021/06/20 10:01:17;;;;;;;21.92;4.50;;;;;;;;;;5141086;27;20274;-72
2021/06/20 10:03:45;;;;;;;19.05;4.85;;;;;;;;;;5141388;27;20214;-72
2021/06/20 10:06:14;;;;;;;24.20;4.35;;;;;;;;;;5141342;27;20238;-72
2021/06/20 10:08:42;;;;;;;17.30;4.35;;;;;;;;;;5140986;27;20546;-72
2021/06/20 10:11:10;;;;;;;23.67;4.43;;;;;;;;;;5141214;27;20626;-72
2021/06/20 10:13:40;;;;;;;18.00;4.78;;;;;;;;;;5140364;27;20256;-71
2021/06/20 10:16:19;;;;;;;25.38;4.32;;;;;;;;;;5140857;27;20231;-71
2021/06/20 10:18:50;;;;;;;25.88;5.63;;;;;;;;;;5141224;27;20213;-72
2021/06/20 10:21:28;;;;;;;19.17;4.60;;;;;;;;;;5140932;27;20225;-71
2021/06/20 10:24:03;;;;;;;22.95;4.22;;;;;;;;;;5140855;27;20203;-71
2021/06/20 10:26:34;;;;;;;27.17;3.88;;;;;;;;;;5140438;27;20207;-71
2021/06/20 10:29:15;;;;;;;21.47;5.00;;;;;;;;;;5140497;27;20222;-71
2021/06/20 10:31:43;;;;;;;21.43;5.43;;;;;;;;;;5140031;27;20260;-72
2021/06/20 10:34:17;;;;;;;18.93;4.57;;;;;;;;;;5139811;27;20240;-71
2021/06/20 10:36:46;;;;;;;18.97;4.03;;;;;;;;;;5140341;27;20206;-71
2021/06/20 10:39:14;;;;;;;15.67;3.97;;;;;;;;;;5139811;27;20200;-71
2021/06/20 10:41:41;;;;;;;23.23;4.20;;;;;;;;;;5139989;27;20238;-71
2021/06/20 10:44:11;;;;;;;17.77;3.93;;;;;;;;;;5140071;27;20244;-72
2021/06/20 10:46:41;;;;;;;21.33;4.13;;;;;;;;;;5139578;27;20215;-72
2021/06/20 10:49:15;;;;;;;12.20;3.73;;;;;;;;;;5139951;27;20269;-72
2021/06/20 10:51:43;;;;;;;12.83;2.87;;;;;;;;;;5139110;27;20229;-72
2021/06/20 10:54:21;;;;;;;15.17;4.37;;;;;;;;;;5139986;27;20237;-72
2021/06/20 10:56:55;;;;;;;18.03;3.50;;;;;;;;;;5139653;27;20680;-72
2021/06/20 10:59:24;;;;;;;16.47;3.57;;;;;;;;;;5139341;27;20236;-73
2021/06/20 11:01:52;;;;;;;12.20;3.20;;;;;;;;;;5139410;27;20704;-73
2021/06/20 11:04:20;;;;;;;13.77;2.97;;;;;;;;;;5139523;27;20205;-72
2021/06/20 11:06:55;;;;;;;20.63;3.57;;;;;;;;;;5125634;27;20203;-73
2021/06/20 11:09:24;;;;;;;14.00;3.13;;;;;;;;;;5139150;27;20201;-72
2021/06/20 11:11:52;;;;;;;13.40;2.93;;;;;;;;;;5138611;27;20219;-73
2021/06/20 11:14:21;;;;;;;7.90;2.63;;;;;;;;;;5139680;27;20209;-73
2021/06/20 11:16:50;;;;;;;9.67;2.30;;;;;;;;;;5139320;27;20205;-73
2021/06/20 11:19:21;;;;;;;16.40;2.33;;;;;;;;;;5139747;27;20297;-72
2021/06/20 11:21:50;;;;;;;9.33;2.10;;;;;;;;;;5139633;27;20255;-72
2021/06/20 11:24:20;;;;;;;8.20;1.93;;;;;;;;;;5139458;27;20651;-73
2021/06/20 11:26:54;;;;;;;9.20;2.47;;;;;;;;;;5139515;27;20212;-72
2021/06/20 11:29:22;;;;;;;8.63;2.63;;;;;;;;;;5139572;27;20214;-72
2021/06/20 11:31:52;;;;;;;10.43;2.10;;;;;;;;;;5139219;27;20701;-72
2021/06/20 11:34:20;;;;;;;8.37;1.97;;;;;;;;;;5139416;27;20235;-72
2021/06/20 11:36:48;;;;;;;8.17;1.83;;;;;;;;;;5139075;27;20208;-73
2021/06/20 11:39:16;;;;;;;9.37;2.30;;;;;;;;;;5139351;27;20226;-72
2021/06/20 11:41:45;;;;;;;4.93;1.87;;;;;;;;;;5139306;27;20627;-72
2021/06/20 11:44:13;;;;;;;3.30;1.60;;;;;;;;;;5125888;27;20547;-72
2021/06/20 11:46:43;;;;;;;6.70;2.73;;;;;;;;;;5138668;27;20196;-72
2021/06/20 11:49:13;;;;;;;9.90;2.17;;;;;;;;;;5139214;27;20205;-72
2021/06/20 11:51:42;;;;;;;10.30;2.43;;;;;;;;;;5139558;27;20226;-72
2021/06/20 11:54:15;;;;;;;12.90;2.93;;;;;;;;;;5139063;27;20206;-72
2021/06/20 11:56:44;;;;;;;11.33;2.70;;;;;;;;;;5139126;27;20682;-72
2021/06/20 11:59:12;;;;;;;17.50;3.83;;;;;;;;;;5138732;27;20274;-73
2021/06/20 12:01:41;;;;;;;14.83;2.83;;;;;;;;;;5137858;27;20226;-72
2021/06/20 12:04:09;;;;;;;18.60;3.07;;;;;;;;;;5138853;27;20237;-72
2021/06/20 12:06:39;;;;;;;11.60;3.03;;;;;;;;;;5138482;27;20202;-71
2021/06/20 12:09:07;;;;;;;14.13;4.20;;;;;;;;;;5138399;27;20598;-72
2021/06/20 12:11:36;;;;;;;12.63;2.80;;;;;;;;;;5136849;27;20700;-72
2021/06/20 12:14:04;;;;;;;11.63;3.00;;;;;;;;;;5130151;27;20206;-72
2021/06/20 12:16:31;;;;;;;13.90;2.40;;;;;;;;;;5138120;27;20229;-71
2021/06/20 12:19:00;;;;;;;9.17;2.70;;;;;;;;;;5138465;27;20202;-71
2021/06/20 12:21:28;;;;;;;7.10;2.60;;;;;;;;;;5138180;27;20225;-70
2021/06/20 12:23:58;;;;;;;11.93;2.87;;;;;;;;;;5138606;28;20237;-70
2021/06/20 12:26:27;;;;;;;12.07;3.37;;;;;;;;;;5138429;28;20201;-71
2021/06/20 12:28:55;;;;;;;17.93;3.80;;;;;;;;;;5138620;28;20651;-70
2021/06/20 12:31:23;;;;;;;10.33;2.90;;;;;;;;;;5138365;28;20232;-69
2021/06/20 12:34:00;;;;;;;7.53;2.20;;;;;;;;;;5138156;28;20235;-67
2021/06/20 12:36:28;;;;;;;8.93;2.77;;;;;;;;;;5138243;28;20252;-67
2021/06/20 12:38:59;;;;;;;12.37;2.47;;;;;;;;;;5138166;28;20204;-69
2021/06/20 12:41:28;;;;;;;7.70;2.40;;;;;;;;;;5138295;28;20555;-69
2021/06/20 12:44:00;;;;;;;8.43;2.50;;;;;;;;;;5138259;28;20227;-69
2021/06/20 12:46:28;;;;;;;10.57;2.70;;;;;;;;;;5137764;28;20201;-70
2021/06/20 12:48:56;;;;;;;10.57;2.90;;;;;;;;;;5137598;28;20208;-69
2021/06/20 12:51:32;;;;;;;10.97;3.30;;;;;;;;;;5137305;28;20232;-70
2021/06/20 12:54:04;;;;;;;10.43;2.87;;;;;;;;;;5125372;28;20229;-69
2021/06/20 12:56:32;;;;;;;10.00;2.37;;;;;;;;;;5136981;28;20323;-69
2021/06/20 12:59:01;;;;;;;10.00;2.40;;;;;;;;;;5137712;28;20213;-69
2021/06/20 13:01:29;;;;;;;13.73;2.90;;;;;;;;;;5137316;28;20240;-69
2021/06/20 13:04:07;;;;;;;9.83;2.47;;;;;;;;;;5137485;28;20213;-69
2021/06/20 13:06:35;;;;;;;5.90;2.07;;;;;;;;;;5137641;28;20202;-69
2021/06/20 13:09:04;;;;;;;7.47;2.33;;;;;;;;;;5137844;28;20669;-69
2021/06/20 13:11:32;;;;;;;7.20;1.97;;;;;;;;;;5137369;28;20231;-69
2021/06/20 13:14:09;;;;;;;6.53;2.03;;;;;;;;;;5138853;27;20206;-69
2021/06/20 13:16:37;;;;;;;8.10;2.23;;;;;;;;;;5141294;27;20267;-69
2021/06/20 13:19:05;;;;;;;5.97;2.10;;;;;;;;;;5141118;27;20644;-69
2021/06/20 13:21:33;;;;;;;7.83;1.70;;;;;;;;;;5141497;27;20566;-70
2021/06/20 13:24:01;;;;;;;5.13;1.87;;;;;;;;;;5141390;27;20210;-70
2021/06/20 13:26:30;;;;;;;8.53;2.07;;;;;;;;;;5141261;27;20196;-69
2021/06/20 13:28:57;;;;;;;10.10;2.47;;;;;;;;;;5140875;27;20244;-70
2021/06/20 13:31:25;;;;;;;6.70;1.73;;;;;;;;;;5141035;27;20233;-69
2021/06/20 13:33:56;;;;;;;5.10;2.10;;;;;;;;;;5141020;27;20236;-69
2021/06/20 13:36:24;;;;;;;4.77;2.43;;;;;;;;;;5141403;27;20228;-69
2021/06/20 13:38:52;;;;;;;8.93;2.17;;;;;;;;;;5140794;27;20550;-69
2021/06/20 13:41:20;;;;;;;8.93;2.30;;;;;;;;;;5140897;27;20229;-70
2021/06/20 13:43:49;;;;;;;12.77;2.63;;;;;;;;;;5140905;27;20721;-69
2021/06/20 13:46:17;;;;;;;12.07;2.50;;;;;;;;;;5140705;27;20222;-69
2021/06/20 13:48:45;;;;;;;9.47;2.30;;;;;;;;;;5140747;27;20209;-70
2021/06/20 13:51:13;;;;;;;7.47;2.13;;;;;;;;;;5140808;27;20199;-70
2021/06/20 13:53:41;;;;;;;3.77;1.53;;;;;;;;;;5140732;27;20207;-70
2021/06/20 13:56:08;;;;;;;10.47;2.20;;;;;;;;;;5140580;27;20279;-70
2021/06/20 13:58:36;;;;;;;5.43;2.00;;;;;;;;;;5140180;27;20554;-69
2021/06/20 14:01:06;;;;;;;8.63;1.93;;;;;;;;;;5140313;27;20217;-69
2021/06/20 14:03:34;;;;;;;6.03;1.50;;;;;;;;;;5140663;27;20209;-68
2021/06/20 14:06:01;;;;;;;5.73;1.50;;;;;;;;;;5140702;27;20200;-69
2021/06/20 14:08:30;;;;;;;4.00;1.30;;;;;;;;;;5126906;27;20250;-69
2021/06/20 14:10:57;;;;;;;6.57;1.40;;;;;;;;;;5139926;27;20203;-69
2021/06/20 14:13:25;;;;;;;7.20;1.77;;;;;;;;;;5139805;27;20202;-69
2021/06/20 14:15:53;;;;;;;6.03;2.50;;;;;;;;;;5140339;27;20207;-69
2021/06/20 14:18:22;;;;;;;3.87;1.97;;;;;;;;;;5140281;27;20225;-70
2021/06/20 14:20:50;;;;;;;7.23;1.93;;;;;;;;;;5140237;27;20207;-69
2021/06/20 14:23:17;;;;;;;3.53;2.13;;;;;;;;;;5140206;27;20237;-69
2021/06/20 14:25:45;;;;;;;7.53;1.90;;;;;;;;;;5140240;27;20211;-69
2021/06/20 14:28:13;;;;;;;5.07;1.47;;;;;;;;;;5139969;27;20202;-69
2021/06/20 14:30:41;;;;;;;6.47;1.90;;;;;;;;;;5140113;27;20212;-69
2021/06/20 14:33:09;;;;;;;4.13;1.57;;;;;;;;;;5139934;27;20296;-69
2021/06/20 14:35:38;;;;;;;5.13;1.67;;;;;;;;;;5139873;27;20237;-69
2021/06/20 14:38:06;;;;;;;9.40;2.10;;;;;;;;;;5140145;27;20224;-69
2021/06/20 14:40:34;;;;;;;4.30;1.43;;;;;;;;;;5140650;27;20671;-69